Time;durP1;ratioP1;P1;durP2;ratioP2;P2;SDS_P1;SDS_P2;PMS_P1;PMS_P2;Temp;Humidity;BMP_temperature;BMP_pressure;BME280_temperature;BME280_humidity;BME280_pressure;Samples;Min_cycle;Max_cycle;Signal;HPM_P1;HPM_P2
2022/07/21 00:00:18;;;;;;;4.05;3.47;;;;;;;;;;5042166;28;20040;-72
2022/07/21 00:02:43;;;;;;;4.10;3.20;;;;;;;;;;5043810;28;20108;-76
2022/07/21 00:05:09;;;;;;;3.83;3.25;;;;;;;;;;5042254;28;20503;-75
2022/07/21 00:07:34;;;;;;;3.10;2.80;;;;;;;;;;5039072;28;20040;-74
2022/07/21 00:10:00;;;;;;;3.20;2.88;;;;;;;;;;5035116;28;20530;-80
2022/07/21 00:12:25;;;;;;;3.50;3.20;;;;;;;;;;5042624;28;20032;-73
2022/07/21 00:14:50;;;;;;;3.50;3.00;;;;;;;;;;5043005;28;20361;-71
2022/07/21 00:17:15;;;;;;;3.03;2.78;;;;;;;;;;5042116;28;20345;-74
2022/07/21 00:19:41;;;;;;;3.60;3.05;;;;;;;;;;5043330;28;20033;-75
2022/07/21 00:22:06;;;;;;;4.10;3.40;;;;;;;;;;5043476;28;20033;-71
2022/07/21 00:24:31;;;;;;;3.70;2.90;;;;;;;;;;5030650;28;20020;-72
2022/07/21 00:26:57;;;;;;;3.17;2.88;;;;;;;;;;5043146;28;20413;-73
2022/07/21 00:29:22;;;;;;;3.40;3.05;;;;;;;;;;5042990;28;20035;-78
2022/07/21 00:31:48;;;;;;;4.03;3.05;;;;;;;;;;5042399;28;20037;-73
2022/07/21 00:34:13;;;;;;;6.03;3.30;;;;;;;;;;5050397;28;20033;-73
2022/07/21 00:36:38;;;;;;;4.47;3.33;;;;;;;;;;5043372;28;20559;-76
2022/07/21 00:39:04;;;;;;;2.97;2.78;;;;;;;;;;5042494;28;20452;-76
2022/07/21 00:41:29;;;;;;;3.53;3.20;;;;;;;;;;5027237;28;20199;-72
2022/07/21 00:43:54;;;;;;;3.50;3.00;;;;;;;;;;5040936;28;20032;-75
2022/07/21 00:46:20;;;;;;;3.40;3.10;;;;;;;;;;5043212;28;20025;-78
2022/07/21 00:48:45;;;;;;;5.28;3.10;;;;;;;;;;5036254;28;20017;-74
2022/07/21 00:51:11;;;;;;;3.47;3.17;;;;;;;;;;5035640;28;20029;-73
2022/07/21 00:53:36;;;;;;;3.35;3.05;;;;;;;;;;5039126;28;20045;-76
2022/07/21 00:56:02;;;;;;;4.45;2.90;;;;;;;;;;5041489;28;20459;-73
2022/07/21 00:58:27;;;;;;;2.95;2.75;;;;;;;;;;5040128;28;20025;-76
2022/07/21 01:00:53;;;;;;;3.00;2.80;;;;;;;;;;5040861;28;20503;-73
2022/07/21 01:03:18;;;;;;;3.35;3.05;;;;;;;;;;5037798;28;20143;-73
2022/07/21 01:05:43;;;;;;;4.00;3.05;;;;;;;;;;5028358;28;20828;-70
2022/07/21 01:08:09;;;;;;;3.70;2.92;;;;;;;;;;5022106;28;20357;-71
2022/07/21 01:10:35;;;;;;;4.95;2.92;;;;;;;;;;5027515;28;20033;-73
2022/07/21 01:13:00;;;;;;;3.10;2.80;;;;;;;;;;5029857;28;20021;-71
2022/07/21 01:15:26;;;;;;;3.25;3.00;;;;;;;;;;5027337;28;20039;-72
2022/07/21 01:17:51;;;;;;;4.05;2.90;;;;;;;;;;5030762;28;20159;-77
2022/07/21 01:20:19;;;;;;;3.83;3.25;;;;;;;;;;5041007;28;20056;-74
2022/07/21 01:22:45;;;;;;;3.72;3.00;;;;;;;;;;5041252;28;20107;-72
2022/07/21 01:25:11;;;;;;;4.75;3.05;;;;;;;;;;5037954;28;20036;-75
2022/07/21 01:27:37;;;;;;;3.28;3.03;;;;;;;;;;5031065;28;20029;-79
2022/07/21 01:30:03;;;;;;;3.08;2.88;;;;;;;;;;5028680;28;20029;-78
2022/07/21 01:32:29;;;;;;;4.38;3.17;;;;;;;;;;5041677;28;20032;-73
2022/07/21 01:34:54;;;;;;;5.82;3.33;;;;;;;;;;5042329;28;20032;-73
2022/07/21 01:37:20;;;;;;;3.15;2.75;;;;;;;;;;5041926;28;20727;-74
2022/07/21 01:42:31;;;;;;;3.90;2.80;;;;;;;;;;5041774;28;20414;-73
2022/07/21 01:44:57;;;;;;;7.18;3.30;;;;;;;;;;5029168;28;20037;-73
2022/07/21 01:47:22;;;;;;;5.53;3.30;;;;;;;;;;5037241;28;20051;-72
2022/07/21 01:49:48;;;;;;;3.88;3.05;;;;;;;;;;5041709;28;20029;-73
2022/07/21 01:52:13;;;;;;;3.10;2.80;;;;;;;;;;5041539;28;20029;-79
2022/07/21 01:54:38;;;;;;;3.63;3.33;;;;;;;;;;5041572;28;20025;-73
2022/07/21 01:57:04;;;;;;;3.35;3.05;;;;;;;;;;5041289;28;20405;-71
2022/07/21 01:59:29;;;;;;;3.47;3.20;;;;;;;;;;5039094;28;20364;-75
2022/07/21 02:01:55;;;;;;;4.88;3.53;;;;;;;;;;5030996;28;20028;-72
2022/07/21 02:04:20;;;;;;;3.70;3.17;;;;;;;;;;5040223;28;20451;-73
2022/07/21 02:06:45;;;;;;;5.35;3.83;;;;;;;;;;5040914;28;20128;-71
2022/07/21 02:09:11;;;;;;;4.45;3.50;;;;;;;;;;5040698;28;20067;-73
2022/07/21 02:11:36;;;;;;;4.07;3.22;;;;;;;;;;5039859;28;20053;-71
2022/07/21 02:14:01;;;;;;;6.38;4.00;;;;;;;;;;5039926;28;20025;-72
2022/07/21 02:16:27;;;;;;;6.38;4.82;;;;;;;;;;5039712;28;20063;-73
2022/07/21 02:18:52;;;;;;;4.38;3.97;;;;;;;;;;5040240;28;20059;-72
2022/07/21 02:21:18;;;;;;;3.50;3.20;;;;;;;;;;5037969;28;20032;-74
2022/07/21 02:23:43;;;;;;;7.78;3.50;;;;;;;;;;5039474;28;20025;-72
2022/07/21 02:26:08;;;;;;;3.33;3.00;;;;;;;;;;5033507;28;20487;-76
2022/07/21 02:28:34;;;;;;;3.78;3.20;;;;;;;;;;5035576;28;20465;-73
2022/07/21 02:30:59;;;;;;;3.60;3.30;;;;;;;;;;5033502;28;20032;-77
2022/07/21 02:33:25;;;;;;;3.50;3.20;;;;;;;;;;5040617;28;20151;-71
2022/07/21 02:35:50;;;;;;;4.95;3.33;;;;;;;;;;5044318;28;20436;-72
2022/07/21 02:38:16;;;;;;;3.55;3.25;;;;;;;;;;5043669;28;20049;-72
2022/07/21 02:40:41;;;;;;;5.53;3.30;;;;;;;;;;5043931;28;20510;-76
2022/07/21 02:43:07;;;;;;;3.80;3.42;;;;;;;;;;5037598;28;20033;-73
2022/07/21 02:45:32;;;;;;;4.05;3.00;;;;;;;;;;5037545;28;20032;-77
2022/07/21 02:47:58;;;;;;;3.20;3.00;;;;;;;;;;5031754;28;20028;-74
2022/07/21 02:50:24;;;;;;;3.33;2.60;;;;;;;;;;5035015;28;20098;-77
2022/07/21 02:52:50;;;;;;;4.78;2.85;;;;;;;;;;5040261;28;20037;-73
2022/07/21 02:55:15;;;;;;;3.95;3.47;;;;;;;;;;5029857;28;20752;-73
2022/07/21 02:57:41;;;;;;;3.40;3.10;;;;;;;;;;5024572;28;20037;-75
2022/07/21 03:00:07;;;;;;;3.80;3.50;;;;;;;;;;5029017;28;20115;-75
2022/07/21 03:02:33;;;;;;;3.72;3.13;;;;;;;;;;5029772;28;20104;-71
2022/07/21 03:04:58;;;;;;;3.40;3.10;;;;;;;;;;5022641;28;20120;-71
2022/07/21 03:07:24;;;;;;;3.05;2.85;;;;;;;;;;5042084;28;20025;-71
2022/07/21 03:09:49;;;;;;;4.43;3.47;;;;;;;;;;5036614;28;20468;-70
2022/07/21 03:12:14;;;;;;;4.78;2.95;;;;;;;;;;5038981;28;20032;-72
2022/07/21 03:14:40;;;;;;;4.97;3.28;;;;;;;;;;5043048;28;20502;-71
2022/07/21 03:17:05;;;;;;;3.53;3.15;;;;;;;;;;5042562;28;20310;-74
2022/07/21 03:19:31;;;;;;;3.78;3.25;;;;;;;;;;5042709;28;20037;-74
2022/07/21 03:21:56;;;;;;;5.20;3.10;;;;;;;;;;5042786;28;20041;-72
2022/07/21 03:24:21;;;;;;;4.30;3.15;;;;;;;;;;5042330;28;20056;-72
2022/07/21 03:26:47;;;;;;;3.40;3.08;;;;;;;;;;5040421;28;20419;-71
2022/07/21 03:29:12;;;;;;;3.67;3.10;;;;;;;;;;5031730;28;20091;-73
2022/07/21 03:31:37;;;;;;;3.63;3.33;;;;;;;;;;5031021;28;20032;-73
2022/07/21 03:34:03;;;;;;;5.00;3.33;;;;;;;;;;5039185;28;20029;-72
2022/07/21 03:36:28;;;;;;;3.50;3.28;;;;;;;;;;5029119;28;20029;-73
2022/07/21 03:38:54;;;;;;;3.67;3.38;;;;;;;;;;5041658;28;20035;-72
2022/07/21 03:41:19;;;;;;;4.22;3.75;;;;;;;;;;5042188;28;20102;-76
2022/07/21 03:43:44;;;;;;;3.67;3.38;;;;;;;;;;5040738;28;20028;-73
2022/07/21 03:46:10;;;;;;;3.60;3.10;;;;;;;;;;5040057;28;20355;-72
2022/07/21 03:48:35;;;;;;;4.47;3.60;;;;;;;;;;5041139;28;20024;-77
2022/07/21 03:51:00;;;;;;;3.85;3.50;;;;;;;;;;5041777;28;20048;-74
2022/07/21 03:53:26;;;;;;;3.75;3.40;;;;;;;;;;5041295;28;20041;-73
2022/07/21 03:55:51;;;;;;;3.45;3.25;;;;;;;;;;5040780;28;20071;-72
2022/07/21 03:58:16;;;;;;;3.67;3.20;;;;;;;;;;5041513;28;20451;-72
2022/07/21 04:00:43;;;;;;;4.28;3.53;;;;;;;;;;5042555;28;20033;-73
2022/07/21 04:03:08;;;;;;;3.67;3.20;;;;;;;;;;5042381;28;20025;-74
2022/07/21 04:05:34;;;;;;;3.35;3.05;;;;;;;;;;5042625;28;20452;-73
2022/07/21 04:08:00;;;;;;;4.53;3.05;;;;;;;;;;5042987;28;20107;-74
2022/07/21 04:10:26;;;;;;;3.83;3.35;;;;;;;;;;5042285;28;20416;-76
2022/07/21 04:12:52;;;;;;;5.57;3.25;;;;;;;;;;5042772;28;20055;-73
2022/07/21 04:15:18;;;;;;;3.63;3.33;;;;;;;;;;5041486;28;20364;-72
2022/07/21 04:17:44;;;;;;;4.53;3.78;;;;;;;;;;5042670;28;20158;-72
2022/07/21 04:20:10;;;;;;;5.68;4.05;;;;;;;;;;5042405;28;20047;-77
2022/07/21 04:22:36;;;;;;;4.47;3.70;;;;;;;;;;5041887;28;20877;-73
2022/07/21 04:25:03;;;;;;;3.50;3.20;;;;;;;;;;5041648;28;20557;-73
2022/07/21 04:27:29;;;;;;;4.70;3.97;;;;;;;;;;5042307;28;20017;-75
2022/07/21 04:29:55;;;;;;;3.47;3.28;;;;;;;;;;5041723;28;20420;-71
2022/07/21 04:32:21;;;;;;;4.03;3.55;;;;;;;;;;5042376;28;20039;-72
2022/07/21 04:34:46;;;;;;;5.10;3.58;;;;;;;;;;5041771;28;20021;-72
2022/07/21 04:37:11;;;;;;;3.53;3.22;;;;;;;;;;5025574;28;20090;-72
2022/07/21 04:39:37;;;;;;;4.00;3.67;;;;;;;;;;5040452;28;20029;-73
2022/07/21 04:42:02;;;;;;;8.20;3.88;;;;;;;;;;5030683;28;23160;-72
2022/07/21 04:44:27;;;;;;;5.30;3.60;;;;;;;;;;5041139;28;20043;-72
2022/07/21 04:46:53;;;;;;;4.00;3.67;;;;;;;;;;5041010;28;20044;-72
2022/07/21 04:49:18;;;;;;;4.40;3.30;;;;;;;;;;5040758;28;20025;-73
2022/07/21 04:51:44;;;;;;;4.72;3.63;;;;;;;;;;5040666;28;20104;-73
2022/07/21 04:54:09;;;;;;;4.00;3.60;;;;;;;;;;5040289;28;20064;-75
2022/07/21 04:56:35;;;;;;;6.78;3.72;;;;;;;;;;5040501;28;20025;-72
2022/07/21 04:59:01;;;;;;;7.47;3.55;;;;;;;;;;5035635;28;20050;-72
2022/07/21 05:01:27;;;;;;;4.10;3.70;;;;;;;;;;5033374;28;20036;-70
2022/07/21 05:03:52;;;;;;;5.72;3.50;;;;;;;;;;5028671;28;20379;-73
2022/07/21 05:06:18;;;;;;;5.53;3.42;;;;;;;;;;5028514;28;20029;-73
2022/07/21 05:08:43;;;;;;;4.53;3.90;;;;;;;;;;5028326;28;20017;-75
2022/07/21 05:11:09;;;;;;;4.78;3.42;;;;;;;;;;5038682;28;20071;-70
2022/07/21 05:13:34;;;;;;;4.45;3.55;;;;;;;;;;5032238;28;21115;-74
2022/07/21 05:15:59;;;;;;;6.07;3.45;;;;;;;;;;5037395;28;20029;-72
2022/07/21 05:18:25;;;;;;;6.75;3.63;;;;;;;;;;5041056;28;20020;-72
2022/07/21 05:20:50;;;;;;;3.50;3.25;;;;;;;;;;5041327;28;20029;-71
2022/07/21 05:23:15;;;;;;;4.88;3.42;;;;;;;;;;5040202;28;20028;-72
2022/07/21 05:25:41;;;;;;;3.25;2.97;;;;;;;;;;5040542;28;20025;-71
2022/07/21 05:28:07;;;;;;;4.20;3.30;;;;;;;;;;5040260;28;20025;-71
2022/07/21 05:30:32;;;;;;;4.53;3.03;;;;;;;;;;5040593;28;20124;-76
2022/07/21 05:32:57;;;;;;;3.92;3.55;;;;;;;;;;5041012;28;20048;-71
2022/07/21 05:35:23;;;;;;;4.25;3.40;;;;;;;;;;5040383;28;20060;-71
2022/07/21 05:37:48;;;;;;;5.07;3.38;;;;;;;;;;5039657;28;20343;-71
2022/07/21 05:40:14;;;;;;;5.68;3.28;;;;;;;;;;5039906;28;20239;-72
2022/07/21 05:42:42;;;;;;;6.05;2.97;;;;;;;;;;5039511;28;20029;-73
2022/07/21 05:45:08;;;;;;;4.88;3.60;;;;;;;;;;5039814;28;20021;-74
2022/07/21 05:47:34;;;;;;;7.47;3.15;;;;;;;;;;5039795;28;20083;-74
2022/07/21 05:49:59;;;;;;;3.25;2.85;;;;;;;;;;5039664;28;20422;-70
2022/07/21 05:52:25;;;;;;;6.90;2.78;;;;;;;;;;5040865;28;20041;-70
2022/07/21 05:54:50;;;;;;;4.10;2.90;;;;;;;;;;5039849;28;20464;-73
2022/07/21 05:57:17;;;;;;;8.60;3.30;;;;;;;;;;5039193;28;20043;-70
2022/07/21 05:59:42;;;;;;;3.65;2.60;;;;;;;;;;5041159;28;20033;-75
2022/07/21 06:02:07;;;;;;;4.38;2.95;;;;;;;;;;5039540;28;20052;-73
2022/07/21 06:04:33;;;;;;;3.47;2.88;;;;;;;;;;5039978;28;20025;-73
2022/07/21 06:06:58;;;;;;;4.07;2.88;;;;;;;;;;5041083;28;20032;-74
2022/07/21 06:09:23;;;;;;;3.63;3.30;;;;;;;;;;5040582;28;20048;-73
2022/07/21 06:11:49;;;;;;;4.28;3.58;;;;;;;;;;5047207;28;20029;-72
2022/07/21 06:14:14;;;;;;;5.65;4.47;;;;;;;;;;5046673;28;20021;-74
2022/07/21 06:16:39;;;;;;;7.57;6.72;;;;;;;;;;5046221;28;20047;-72
2022/07/21 06:19:06;;;;;;;6.93;6.22;;;;;;;;;;5047254;28;20111;-71
2022/07/21 06:21:32;;;;;;;7.30;5.97;;;;;;;;;;5046833;28;20391;-69
2022/07/21 06:23:57;;;;;;;5.55;5.05;;;;;;;;;;5045941;28;20020;-72
2022/07/21 06:26:22;;;;;;;6.47;4.80;;;;;;;;;;5045449;28;20360;-73
2022/07/21 06:28:47;;;;;;;5.75;5.22;;;;;;;;;;5046390;28;20025;-72
2022/07/21 06:31:13;;;;;;;6.10;4.00;;;;;;;;;;5046824;28;20096;-71
2022/07/21 06:33:38;;;;;;;3.85;3.40;;;;;;;;;;5045474;28;20032;-71
2022/07/21 06:36:04;;;;;;;3.85;2.92;;;;;;;;;;5045477;28;20033;-69
2022/07/21 06:38:29;;;;;;;3.50;3.20;;;;;;;;;;5046332;28;20040;-73
2022/07/21 06:40:54;;;;;;;3.90;2.70;;;;;;;;;;5046128;28;20037;-70
2022/07/21 06:43:20;;;;;;;10.18;3.30;;;;;;;;;;5046566;28;20029;-72
2022/07/21 06:45:45;;;;;;;4.72;2.85;;;;;;;;;;5044735;28;20051;-73
2022/07/21 06:48:12;;;;;;;3.72;2.70;;;;;;;;;;5047009;28;20025;-69
2022/07/21 06:50:37;;;;;;;3.58;2.80;;;;;;;;;;5046385;28;20123;-72
2022/07/21 06:53:03;;;;;;;4.38;2.83;;;;;;;;;;5046343;28;20133;-70
2022/07/21 06:55:29;;;;;;;3.08;2.58;;;;;;;;;;5046395;28;20020;-72
2022/07/21 06:57:54;;;;;;;3.92;2.63;;;;;;;;;;5045407;28;20040;-70
2022/07/21 07:00:21;;;;;;;3.10;2.78;;;;;;;;;;5046121;28;20460;-73
2022/07/21 07:02:47;;;;;;;2.50;2.30;;;;;;;;;;5046214;28;20079;-71
2022/07/21 07:05:12;;;;;;;2.58;2.38;;;;;;;;;;5046395;28;20078;-72
2022/07/21 07:07:38;;;;;;;4.00;2.55;;;;;;;;;;5046733;28;20033;-72
2022/07/21 07:10:04;;;;;;;3.25;2.53;;;;;;;;;;5046584;28;20025;-71
2022/07/21 07:12:29;;;;;;;3.80;2.63;;;;;;;;;;5046942;28;20346;-74
2022/07/21 07:14:54;;;;;;;2.95;2.67;;;;;;;;;;5046715;28;20317;-73
2022/07/21 07:17:20;;;;;;;3.40;2.50;;;;;;;;;;5044336;28;20043;-71
2022/07/21 07:19:46;;;;;;;3.67;2.78;;;;;;;;;;5043550;28;20440;-73
2022/07/21 07:22:11;;;;;;;3.53;2.47;;;;;;;;;;5043676;28;20025;-74
2022/07/21 07:24:36;;;;;;;3.25;2.70;;;;;;;;;;5042905;28;20043;-73
2022/07/21 07:27:02;;;;;;;2.65;2.40;;;;;;;;;;5043274;28;20028;-71
2022/07/21 07:29:28;;;;;;;2.47;2.20;;;;;;;;;;5041021;28;20033;-71
2022/07/21 07:31:54;;;;;;;3.78;2.35;;;;;;;;;;5042957;28;20031;-72
2022/07/21 07:34:19;;;;;;;5.35;2.78;;;;;;;;;;5035280;28;20025;-74
2022/07/21 07:36:45;;;;;;;5.10;2.28;;;;;;;;;;5038885;28;20025;-71
2022/07/21 07:39:10;;;;;;;3.25;2.35;;;;;;;;;;5042474;28;20598;-73
2022/07/21 07:41:36;;;;;;;6.07;2.60;;;;;;;;;;5042219;28;20044;-72
2022/07/21 07:44:01;;;;;;;3.55;2.50;;;;;;;;;;5042209;28;20028;-72
2022/07/21 07:46:27;;;;;;;3.53;2.60;;;;;;;;;;5042969;28;20020;-70
2022/07/21 07:48:52;;;;;;;3.03;2.42;;;;;;;;;;5043092;28;20025;-71
2022/07/21 07:51:17;;;;;;;2.67;2.47;;;;;;;;;;5042374;28;20028;-73
2022/07/21 07:53:43;;;;;;;3.97;2.17;;;;;;;;;;5033403;28;20040;-76
2022/07/21 07:56:08;;;;;;;2.50;2.30;;;;;;;;;;5041323;28;20032;-73
2022/07/21 07:58:34;;;;;;;9.00;2.80;;;;;;;;;;5042799;28;20053;-72
2022/07/21 08:00:59;;;;;;;3.15;2.35;;;;;;;;;;5042390;28;20071;-73
2022/07/21 08:03:25;;;;;;;2.42;2.22;;;;;;;;;;5042306;28;20064;-73
2022/07/21 08:05:51;;;;;;;2.95;2.40;;;;;;;;;;5047413;28;20035;-72
2022/07/21 08:08:16;;;;;;;2.58;2.20;;;;;;;;;;5042953;28;20099;-72
2022/07/21 08:10:43;;;;;;;2.53;2.33;;;;;;;;;;5043469;28;20120;-73
2022/07/21 08:13:09;;;;;;;2.28;2.00;;;;;;;;;;5043863;28;20021;-73
2022/07/21 08:15:34;;;;;;;2.55;2.28;;;;;;;;;;5041292;28;20043;-72
2022/07/21 08:18:00;;;;;;;4.18;2.10;;;;;;;;;;5036540;28;20514;-72
2022/07/21 08:20:25;;;;;;;2.97;1.95;;;;;;;;;;5032944;28;20098;-73
2022/07/21 08:22:50;;;;;;;2.30;2.10;;;;;;;;;;5030495;28;20064;-72
2022/07/21 08:25:16;;;;;;;2.78;2.22;;;;;;;;;;5029553;28;20047;-73
2022/07/21 08:27:42;;;;;;;2.63;1.92;;;;;;;;;;5042191;28;20021;-72
2022/07/21 08:30:08;;;;;;;4.15;1.92;;;;;;;;;;5030174;28;20325;-74
2022/07/21 08:32:33;;;;;;;5.68;2.00;;;;;;;;;;5030535;28;20036;-76
2022/07/21 08:34:58;;;;;;;2.28;2.08;;;;;;;;;;5031320;28;20500;-72
2022/07/21 08:37:24;;;;;;;8.15;2.00;;;;;;;;;;5031998;28;20036;-71
2022/07/21 08:39:49;;;;;;;4.93;2.08;;;;;;;;;;5029097;28;20017;-71
2022/07/21 08:42:14;;;;;;;4.65;2.40;;;;;;;;;;5028077;28;20333;-71
2022/07/21 08:44:40;;;;;;;5.75;2.20;;;;;;;;;;5027194;28;20033;-75
2022/07/21 08:47:05;;;;;;;4.55;2.05;;;;;;;;;;5027937;28;20033;-71
2022/07/21 08:49:32;;;;;;;4.10;2.35;;;;;;;;;;5028759;28;20028;-72
2022/07/21 08:51:57;;;;;;;3.60;2.53;;;;;;;;;;5028314;28;20349;-73
2022/07/21 08:54:23;;;;;;;3.67;2.25;;;;;;;;;;5028056;28;20041;-73
2022/07/21 08:56:48;;;;;;;3.60;2.33;;;;;;;;;;5029507;28;21045;-74
2022/07/21 08:59:14;;;;;;;2.78;2.25;;;;;;;;;;5027968;28;20033;-72
2022/07/21 09:01:39;;;;;;;3.35;2.30;;;;;;;;;;5027318;28;20041;-73
2022/07/21 09:04:20;;;;;;;2.72;2.25;;;;;;;;;;5028887;28;20033;-70
2022/07/21 09:06:56;;;;;;;3.38;2.47;;;;;;;;;;5027907;28;20028;-70
2022/07/21 09:09:22;;;;;;;2.20;2.00;;;;;;;;;;5027795;28;20021;-71
2022/07/21 09:11:48;;;;;;;2.45;2.10;;;;;;;;;;5028367;28;20312;-75
2022/07/21 09:14:17;;;;;;;2.30;1.80;;;;;;;;;;5026242;28;20063;-73
2022/07/21 09:16:43;;;;;;;;;;;;;;;;;;5027547;28;20028;-74
2022/07/21 09:19:15;;;;;;;2.97;2.33;;;;;;;;;;5028656;28;19947;-73
2022/07/21 09:21:41;;;;;;;2.50;2.00;;;;;;;;;;5028509;28;20033;-73
2022/07/21 09:24:15;;;;;;;3.50;2.28;;;;;;;;;;5027972;28;20086;-73
2022/07/21 09:26:57;;;;;;;4.82;2.30;;;;;;;;;;5027677;28;20021;-75
2022/07/21 09:29:22;;;;;;;2.90;2.30;;;;;;;;;;5026713;28;23664;-74
2022/07/21 09:31:47;;;;;;;3.35;2.38;;;;;;;;;;5028159;28;20036;-73
2022/07/21 09:34:14;;;;;;;4.97;2.30;;;;;;;;;;5026646;28;20021;-72
2022/07/21 09:36:39;;;;;;;3.78;2.15;;;;;;;;;;5027907;28;20025;-73
2022/07/21 09:39:05;;;;;;;5.75;2.22;;;;;;;;;;5027440;28;20035;-73
2022/07/21 09:41:30;;;;;;;2.88;2.28;;;;;;;;;;5026308;28;20040;-74
2022/07/21 09:43:57;;;;;;;4.82;2.42;;;;;;;;;;5027815;28;20035;-74
2022/07/21 09:46:22;;;;;;;2.67;2.22;;;;;;;;;;5027637;28;20029;-75
2022/07/21 09:48:50;;;;;;;3.25;2.45;;;;;;;;;;5027439;28;20040;-75
2022/07/21 09:51:18;;;;;;;5.20;2.35;;;;;;;;;;5027876;28;20403;-73
2022/07/21 09:53:59;;;;;;;5.68;2.30;;;;;;;;;;5026549;28;20044;-73
2022/07/21 09:56:24;;;;;;;3.70;2.47;;;;;;;;;;5027619;28;20029;-75
2022/07/21 09:58:51;;;;;;;2.67;2.35;;;;;;;;;;5026739;28;20021;-76
2022/07/21 10:01:17;;;;;;;5.75;3.17;;;;;;;;;;5026494;28;20701;-73
2022/07/21 10:03:46;;;;;;;6.55;2.58;;;;;;;;;;5026244;28;20024;-73
2022/07/21 10:06:12;;;;;;;2.92;2.60;;;;;;;;;;5028155;28;20041;-73
2022/07/21 10:08:38;;;;;;;6.18;3.13;;;;;;;;;;5027704;28;20051;-71
2022/07/21 10:11:03;;;;;;;5.22;2.92;;;;;;;;;;5027236;28;20361;-72
2022/07/21 10:13:29;;;;;;;6.72;2.65;;;;;;;;;;5026499;28;20039;-73
2022/07/21 10:15:54;;;;;;;3.00;2.17;;;;;;;;;;5026723;28;20028;-76
2022/07/21 10:18:30;;;;;;;2.78;2.40;;;;;;;;;;5026727;28;20044;-73
2022/07/21 10:20:59;;;;;;;3.03;2.80;;;;;;;;;;5027165;28;20025;-76
2022/07/21 10:23:34;;;;;;;5.30;2.53;;;;;;;;;;5026561;28;20029;-72
2022/07/21 10:26:02;;;;;;;11.45;3.13;;;;;;;;;;5026423;28;21025;-72
2022/07/21 10:28:28;;;;;;;6.38;2.72;;;;;;;;;;5030312;28;20016;-72
2022/07/21 10:30:54;;;;;;;3.83;2.80;;;;;;;;;;5046299;28;20448;-72
2022/07/21 10:33:21;;;;;;;2.95;2.53;;;;;;;;;;5041946;28;20033;-77
2022/07/21 10:35:48;;;;;;;2.65;2.45;;;;;;;;;;5040903;28;20448;-72
2022/07/21 10:38:27;;;;;;;7.95;3.45;;;;;;;;;;5041018;28;20456;-71
2022/07/21 10:40:53;;;;;;;8.80;2.88;;;;;;;;;;5027645;28;20037;-76
2022/07/21 10:43:24;;;;;;;4.95;2.67;;;;;;;;;;5026483;28;20037;-72
2022/07/21 10:45:50;;;;;;;2.67;2.20;;;;;;;;;;5025995;28;20032;-72
2022/07/21 10:48:34;;;;;;;5.07;2.55;;;;;;;;;;5026689;28;20186;-72
2022/07/21 10:50:59;;;;;;;2.85;2.35;;;;;;;;;;5027268;28;20025;-72
2022/07/21 10:53:25;;;;;;;3.85;2.60;;;;;;;;;;5030623;28;20090;-77
2022/07/21 10:55:52;;;;;;;5.05;2.45;;;;;;;;;;5029682;28;20496;-74
2022/07/21 10:58:20;;;;;;;4.93;2.30;;;;;;;;;;5030581;28;20086;-73
2022/07/21 11:00:47;;;;;;;4.57;2.40;;;;;;;;;;5029759;28;20040;-72
2022/07/21 11:03:33;;;;;;;7.57;3.45;;;;;;;;;;5031351;28;20032;-73
2022/07/21 11:06:18;;;;;;;4.68;2.90;;;;;;;;;;5029444;28;20017;-72
2022/07/21 11:08:48;;;;;;;5.00;2.58;;;;;;;;;;5026871;28;20360;-72
2022/07/21 11:11:16;;;;;;;3.22;2.60;;;;;;;;;;5040685;28;20025;-74
2022/07/21 11:14:00;;;;;;;6.40;2.70;;;;;;;;;;5033787;28;20029;-72
2022/07/21 11:16:46;;;;;;;4.18;3.13;;;;;;;;;;5039781;28;20032;-72
2022/07/21 11:19:28;;;;;;;5.32;2.70;;;;;;;;;;5029952;28;20044;-72
2022/07/21 11:21:53;;;;;;;5.43;2.53;;;;;;;;;;5032692;28;20029;-73
2022/07/21 11:24:20;;;;;;;5.30;2.65;;;;;;;;;;5031378;28;20033;-76
2022/07/21 11:26:53;;;;;;;3.00;2.08;;;;;;;;;;5043685;28;20120;-73
2022/07/21 11:29:18;;;;;;;2.60;2.30;;;;;;;;;;5044477;28;20029;-71
2022/07/21 11:31:46;;;;;;;4.68;2.55;;;;;;;;;;5043509;28;20448;-71
2022/07/21 11:34:12;;;;;;;;;;;;;;;;;;5038998;28;20064;-73
2022/07/21 11:36:37;;;;;;;3.20;2.50;;;;;;;;;;5037031;28;19955;-70
2022/07/21 11:39:04;;;;;;;5.68;2.45;;;;;;;;;;5042943;28;20029;-72
2022/07/21 11:41:30;;;;;;;4.22;2.75;;;;;;;;;;5043428;28;20040;-70
2022/07/21 11:43:55;;;;;;;6.72;2.30;;;;;;;;;;5042337;28;20021;-72
2022/07/21 11:46:20;;;;;;;3.63;2.30;;;;;;;;;;5029217;28;20029;-71
2022/07/21 11:48:46;;;;;;;3.38;2.50;;;;;;;;;;5029949;28;20020;-71
2022/07/21 11:51:11;;;;;;;3.67;2.60;;;;;;;;;;5029730;28;20033;-71
2022/07/21 11:53:42;;;;;;;5.53;2.83;;;;;;;;;;5029765;28;20132;-71
2022/07/21 11:56:15;;;;;;;2.78;1.92;;;;;;;;;;5029371;28;20053;-75
2022/07/21 11:58:41;;;;;;;4.50;2.38;;;;;;;;;;5030872;28;20076;-72
2022/07/21 12:01:07;;;;;;;4.10;2.60;;;;;;;;;;5029378;28;20128;-77
2022/07/21 12:03:33;;;;;;;5.35;2.55;;;;;;;;;;5028075;28;20040;-71
2022/07/21 12:06:00;;;;;;;5.07;2.42;;;;;;;;;;5029324;28;20627;-70
2022/07/21 12:08:25;;;;;;;2.63;2.10;;;;;;;;;;5029772;28;20079;-76
2022/07/21 12:10:50;;;;;;;3.33;2.30;;;;;;;;;;5028995;28;20029;-71
2022/07/21 12:13:16;;;;;;;3.95;2.53;;;;;;;;;;5029712;28;21368;-76
2022/07/21 12:15:41;;;;;;;2.95;2.40;;;;;;;;;;5029137;28;20344;-73
2022/07/21 12:18:20;;;;;;;5.55;2.28;;;;;;;;;;5028952;28;20025;-72
2022/07/21 12:20:46;;;;;;;3.33;2.47;;;;;;;;;;5028721;28;20060;-71
2022/07/21 12:23:17;;;;;;;5.13;2.42;;;;;;;;;;5029509;28;20187;-73
2022/07/21 12:25:43;;;;;;;2.65;2.28;;;;;;;;;;5029568;28;20446;-72
2022/07/21 12:28:08;;;;;;;5.00;2.40;;;;;;;;;;5029055;28;20025;-75
2022/07/21 12:30:33;;;;;;;2.80;2.50;;;;;;;;;;5028247;28;20029;-74
2022/07/21 12:33:05;;;;;;;3.55;2.22;;;;;;;;;;5024835;28;20452;-77
2022/07/21 12:35:31;;;;;;;4.60;2.92;;;;;;;;;;5029224;28;20051;-70
2022/07/21 12:37:57;;;;;;;9.02;2.67;;;;;;;;;;5029944;28;20440;-72
2022/07/21 12:40:23;;;;;;;3.83;2.60;;;;;;;;;;5029585;28;20037;-72
2022/07/21 12:42:49;;;;;;;3.28;2.50;;;;;;;;;;5027877;28;20036;-72
2022/07/21 12:45:15;;;;;;;4.93;2.45;;;;;;;;;;5029124;28;20048;-76
2022/07/21 12:47:41;;;;;;;4.07;2.80;;;;;;;;;;5030164;28;20029;-77
2022/07/21 12:50:08;;;;;;;6.63;2.60;;;;;;;;;;5029748;28;20471;-72
2022/07/21 12:52:33;;;;;;;5.70;2.60;;;;;;;;;;5030379;28;20021;-72
2022/07/21 12:54:59;;;;;;;5.70;2.45;;;;;;;;;;5031275;28;20097;-77
2022/07/21 12:57:26;;;;;;;3.08;2.67;;;;;;;;;;5028147;28;20349;-77
2022/07/21 12:59:51;;;;;;;3.38;2.55;;;;;;;;;;5028706;28;20029;-72
2022/07/21 13:02:17;;;;;;;3.45;2.80;;;;;;;;;;5028847;28;20037;-69
2022/07/21 13:04:42;;;;;;;4.53;2.90;;;;;;;;;;5031182;28;20506;-73
2022/07/21 13:07:08;;;;;;;5.60;2.92;;;;;;;;;;5029103;28;20033;-71
2022/07/21 13:09:33;;;;;;;3.60;2.20;;;;;;;;;;5029264;28;20411;-75
2022/07/21 13:11:58;;;;;;;4.20;2.95;;;;;;;;;;5028223;28;20033;-71
2022/07/21 13:14:24;;;;;;;4.35;2.80;;;;;;;;;;5028972;28;20048;-76
2022/07/21 13:16:49;;;;;;;4.47;2.63;;;;;;;;;;5029296;28;20025;-73
2022/07/21 13:19:14;;;;;;;8.18;2.60;;;;;;;;;;5030286;28;20372;-71
2022/07/21 13:21:40;;;;;;;4.38;2.60;;;;;;;;;;5030070;28;20041;-75
2022/07/21 13:24:05;;;;;;;4.32;2.35;;;;;;;;;;5029104;28;20147;-72
2022/07/21 13:26:30;;;;;;;6.88;2.80;;;;;;;;;;5029976;28;20033;-72
2022/07/21 13:28:56;;;;;;;5.60;2.75;;;;;;;;;;5028154;28;20037;-72
2022/07/21 13:31:21;;;;;;;4.43;2.83;;;;;;;;;;5029241;28;20080;-71
2022/07/21 13:33:47;;;;;;;6.38;3.08;;;;;;;;;;5028466;28;20094;-72
2022/07/21 13:36:12;;;;;;;5.57;3.05;;;;;;;;;;5030035;28;21893;-71
2022/07/21 13:38:38;;;;;;;3.83;2.63;;;;;;;;;;5029796;28;20384;-77
2022/07/21 13:41:03;;;;;;;5.82;2.80;;;;;;;;;;5028412;28;20040;-73
2022/07/21 13:43:29;;;;;;;6.72;2.88;;;;;;;;;;5028233;28;20087;-71
2022/07/21 13:45:54;;;;;;;4.68;3.00;;;;;;;;;;5028167;28;20828;-75
2022/07/21 13:48:19;;;;;;;5.93;2.75;;;;;;;;;;5029614;28;20033;-71
2022/07/21 13:50:45;;;;;;;5.45;2.63;;;;;;;;;;5029523;28;20028;-73
2022/07/21 13:53:10;;;;;;;7.32;2.75;;;;;;;;;;5029480;28;20186;-71
2022/07/21 13:55:36;;;;;;;7.38;3.20;;;;;;;;;;5027545;28;20364;-71
2022/07/21 13:58:01;;;;;;;4.22;2.85;;;;;;;;;;5027270;28;20036;-73
2022/07/21 14:00:27;;;;;;;6.88;2.72;;;;;;;;;;5021831;28;20060;-73
2022/07/21 14:02:52;;;;;;;4.78;2.70;;;;;;;;;;5026373;28;20028;-73
2022/07/21 14:05:17;;;;;;;4.20;2.40;;;;;;;;;;5033578;28;20526;-72
2022/07/21 14:07:43;;;;;;;4.30;2.88;;;;;;;;;;5039407;28;20040;-76
2022/07/21 14:10:08;;;;;;;3.35;2.55;;;;;;;;;;5040325;28;20021;-72
2022/07/21 14:12:34;;;;;;;5.70;2.88;;;;;;;;;;5028893;28;20368;-71
2022/07/21 14:14:59;;;;;;;4.30;2.60;;;;;;;;;;5030180;28;20119;-71
2022/07/21 14:17:24;;;;;;;4.70;2.63;;;;;;;;;;5038857;28;20021;-74
2022/07/21 14:19:50;;;;;;;5.95;2.80;;;;;;;;;;5028426;28;20104;-70
2022/07/21 14:22:17;;;;;;;3.75;2.53;;;;;;;;;;5025477;28;20115;-73
2022/07/21 14:27:27;;;;;;;3.92;2.33;;;;;;;;;;5029065;28;21659;-70
2022/07/21 14:29:52;;;;;;;5.82;2.97;;;;;;;;;;5038897;28;20021;-70
2022/07/21 14:32:21;;;;;;;5.75;2.83;;;;;;;;;;5042778;28;20037;-70
2022/07/21 14:34:47;;;;;;;4.40;2.72;;;;;;;;;;5033453;28;20423;-70
2022/07/21 14:37:13;;;;;;;5.53;2.85;;;;;;;;;;5031648;28;20041;-74
2022/07/21 14:39:38;;;;;;;4.68;3.03;;;;;;;;;;5033045;28;20027;-70
2022/07/21 14:42:03;;;;;;;6.78;3.00;;;;;;;;;;5036759;28;20481;-71